createdAt,value
2019-04-03T00:03:17.191Z,9.49
2019-04-03T00:08:20.492Z,9.63
2019-04-03T00:13:23.792Z,9.63
2019-04-03T00:18:27.141Z,9.25
2019-04-03T00:23:30.386Z,9.26
2019-04-03T00:28:33.680Z,9.13
2019-04-03T00:33:36.975Z,9.09
2019-04-03T00:38:41.309Z,8.93
2019-04-03T00:43:44.622Z,8.78
2019-04-03T00:48:47.920Z,8.93
2019-04-03T00:53:51.220Z,8.84
2019-04-03T00:58:55.935Z,8.87
2019-04-03T01:03:59.255Z,8.57
2019-04-03T01:09:02.631Z,8.68
2019-04-03T01:14:06.202Z,8.55
2019-04-03T01:19:09.677Z,8.55
2019-04-03T01:24:12.976Z,8.39
2019-04-03T01:29:16.275Z,8.23
2019-04-03T01:34:19.651Z,8.11
2019-04-03T01:39:22.942Z,8.14
2019-04-03T01:44:26.244Z,8.21
2019-04-03T01:49:29.641Z,8.08
2019-04-03T01:54:33.743Z,8.07
2019-04-03T01:59:37.946Z,8.00
2019-04-03T02:04:42.673Z,7.67
2019-04-03T02:09:47.017Z,7.52
2019-04-03T02:14:51.534Z,7.56
2019-04-03T02:19:56.395Z,7.58
2019-04-03T02:25:01.879Z,7.56
2019-04-03T02:30:12.343Z,7.51
2019-04-03T02:35:13.189Z,7.46
2019-04-03T02:40:16.753Z,7.47
2019-04-03T02:45:22.750Z,7.25
2019-04-03T02:50:25.511Z,7.02
2019-04-03T02:55:28.980Z,6.98
2019-04-03T03:00:33.723Z,7.16
2019-04-03T03:05:37.138Z,7.05
2019-04-03T03:10:40.506Z,7.09
2019-04-03T03:15:44.909Z,7.08
2019-04-03T03:20:49.346Z,6.91
2019-04-03T03:25:52.643Z,6.84
2019-04-03T03:31:02.690Z,6.88
2019-04-03T03:36:02.900Z,6.90
2019-04-03T03:41:06.839Z,6.86
2019-04-03T03:46:11.207Z,6.70
2019-04-03T03:51:15.463Z,6.64
2019-04-03T03:56:19.495Z,6.53
2019-04-03T04:01:23.213Z,6.75
2019-04-03T04:06:29.391Z,6.69
2019-04-03T04:11:32.495Z,6.81
2019-04-03T04:16:37.255Z,6.57
2019-04-03T04:21:44.013Z,6.83
2019-04-03T04:26:46.119Z,6.82
2019-04-03T04:31:49.413Z,6.85
2019-04-03T04:36:55.418Z,6.81
2019-04-03T04:41:58.378Z,6.72
2019-04-03T04:47:01.683Z,6.80
2019-04-03T04:52:05.061Z,6.87
2019-04-03T04:57:09.555Z,6.87
2019-04-03T05:02:12.812Z,6.96
2019-04-03T05:07:17.431Z,7.04
2019-04-03T05:12:21.053Z,6.95
2019-04-03T05:17:24.794Z,7.17
2019-04-03T05:22:29.452Z,7.29
2019-04-03T05:27:34.446Z,7.38
2019-04-03T05:32:40.729Z,7.31
2019-04-03T05:37:43.625Z,7.30
2019-04-03T05:42:47.045Z,7.43
2019-04-03T05:47:50.346Z,7.60
2019-04-03T05:52:53.773Z,7.53
2019-04-03T05:57:57.058Z,7.77
2019-04-03T06:03:00.380Z,7.88
2019-04-03T06:08:03.884Z,8.14
2019-04-03T06:13:07.186Z,8.31
2019-04-03T06:18:10.526Z,8.25
2019-04-03T06:23:13.792Z,8.60
2019-04-03T06:28:17.087Z,8.87
2019-04-03T06:33:20.384Z,9.00
2019-04-03T06:38:24.535Z,8.96
2019-04-03T06:43:30.183Z,8.86
2019-04-03T06:48:34.640Z,8.86
2019-04-03T06:53:38.765Z,9.08
2019-04-03T06:58:44.400Z,9.13
2019-04-03T07:03:47.072Z,8.84
2019-04-03T07:08:50.375Z,9.28
2019-04-03T07:13:54.451Z,9.26
2019-04-03T07:18:58.061Z,9.69
2019-04-03T07:24:01.422Z,9.77
2019-04-03T07:29:04.697Z,10.02
2019-04-03T07:34:08.192Z,10.17
2019-04-03T07:39:11.477Z,9.95
2019-04-03T07:44:14.763Z,10.14
2019-04-03T07:49:18.402Z,10.90
2019-04-03T07:54:22.612Z,10.85
2019-04-03T07:59:26.515Z,11.31
2019-04-03T08:04:29.960Z,10.92
2019-04-03T08:09:33.266Z,10.95
2019-04-03T08:14:36.550Z,11.69
2019-04-03T08:19:39.870Z,12.10
2019-04-03T08:24:43.184Z,11.55
2019-04-03T08:29:46.559Z,11.77
2019-04-03T08:34:49.866Z,12.33
2019-04-03T08:39:53.293Z,11.55
2019-04-03T08:44:59.571Z,12.24
2019-04-03T08:50:02.869Z,12.23
2019-04-03T08:55:08.021Z,13.08
2019-04-03T09:00:12.150Z,13.43
2019-04-03T09:05:17.035Z,13.78
2019-04-03T09:10:20.545Z,14.16
2019-04-03T09:15:23.905Z,13.95
2019-04-03T09:20:27.175Z,14.40
2019-04-03T09:25:31.622Z,15.21
2019-04-03T09:30:35.784Z,14.94
2019-04-03T09:35:42.285Z,15.93
2019-04-03T09:40:47.246Z,15.53
2019-04-03T09:45:49.729Z,14.40
2019-04-03T09:50:53.173Z,14.59
2019-04-03T09:55:56.406Z,14.78
2019-04-03T10:00:59.714Z,14.96
2019-04-03T10:06:03.015Z,15.29
2019-04-03T10:11:06.310Z,15.44
2019-04-03T10:16:09.612Z,16.40
2019-04-03T10:21:12.913Z,16.86
2019-04-03T10:26:16.555Z,16.19
2019-04-03T10:31:19.941Z,15.44
2019-04-03T10:36:23.250Z,16.76
2019-04-03T10:41:28.762Z,17.13
2019-04-03T10:46:31.960Z,16.68
2019-04-03T10:51:35.268Z,16.54
2019-04-03T10:56:38.800Z,17.63
2019-04-03T11:01:42.141Z,16.76
2019-04-03T11:33:25.989Z,18.33
2019-04-03T11:38:29.956Z,18.50
2019-04-03T11:43:33.407Z,19.39
2019-04-03T11:48:36.828Z,18.52
2019-04-03T11:53:40.135Z,19.36
2019-04-03T11:58:43.395Z,19.58
2019-04-03T12:03:46.689Z,19.83
2019-04-03T12:08:50.326Z,20.57
2019-04-03T12:13:53.969Z,21.19
2019-04-03T12:18:57.458Z,20.10
2019-04-03T12:24:00.760Z,22.04
2019-04-03T12:29:06.908Z,20.94
2019-04-03T12:34:09.098Z,20.85
2019-04-03T12:39:13.529Z,20.57
2019-04-03T12:44:16.831Z,20.34
2019-04-03T12:49:22.425Z,19.59
2019-04-03T12:54:25.432Z,20.83
2019-04-03T12:59:29.417Z,21.76
2019-04-03T13:04:32.932Z,20.29
2019-04-03T13:09:38.002Z,20.70
2019-04-03T13:14:41.439Z,21.41
2019-04-03T13:19:45.260Z,21.65
2019-04-03T13:24:49.687Z,22.38
2019-04-03T13:29:52.926Z,21.78
2019-04-03T13:34:56.231Z,21.81
2019-04-03T13:40:00.514Z,21.81
2019-04-03T13:45:08.159Z,21.05
2019-04-03T13:50:11.863Z,20.29
2019-04-03T13:55:15.562Z,20.88
2019-04-03T14:00:22.560Z,21.65
2019-04-03T14:05:27.245Z,22.47
2019-04-03T14:10:29.184Z,21.33
2019-04-03T14:15:32.753Z,21.54
2019-04-03T14:20:36.546Z,21.93
2019-04-03T14:25:39.889Z,20.81
2019-04-03T14:30:44.994Z,21.02
2019-04-03T14:35:52.999Z,19.96
2019-04-03T14:40:53.380Z,20.85
2019-04-03T14:45:56.708Z,20.98
2019-04-03T14:51:00.039Z,21.33
2019-04-03T14:56:03.365Z,20.92
2019-04-03T15:01:06.738Z,21.30
2019-04-03T15:06:10.393Z,20.67
2019-04-03T15:11:13.656Z,20.78
2019-04-03T15:16:17.419Z,20.97
2019-04-03T15:21:23.754Z,20.25
2019-04-03T15:26:25.965Z,20.14
2019-04-03T15:31:29.288Z,20.00
2019-04-03T15:36:34.930Z,19.93
2019-04-03T15:41:38.032Z,19.75
2019-04-03T15:46:41.634Z,19.72
2019-04-03T15:51:44.967Z,19.41
2019-04-03T15:56:48.689Z,20.13
2019-04-03T16:01:51.991Z,20.29
2019-04-03T16:06:55.508Z,20.43
2019-04-03T16:12:00.472Z,20.62
2019-04-03T16:17:03.874Z,19.48
2019-04-03T16:22:07.197Z,19.48
2019-04-03T16:27:10.530Z,19.46
2019-04-03T16:32:13.848Z,18.99
2019-04-03T16:37:20.492Z,18.76
2019-04-03T16:42:22.736Z,18.55
2019-04-03T16:47:27.598Z,18.27
2019-04-03T16:52:31.308Z,18.11
2019-04-03T16:57:34.773Z,17.84
2019-04-03T17:02:38.101Z,17.67
2019-04-03T17:07:41.898Z,17.40
2019-04-03T17:12:46.196Z,17.13
2019-04-03T17:17:50.136Z,17.07
2019-04-03T17:22:53.535Z,16.86
2019-04-03T17:27:58.929Z,16.62
2019-04-03T17:33:02.822Z,16.50
2019-04-03T17:38:06.754Z,16.31
2019-04-03T17:43:11.292Z,16.19
2019-04-03T17:48:16.153Z,15.97
2019-04-03T17:53:19.891Z,15.75
2019-04-03T17:58:24.237Z,15.51
2019-04-03T18:03:27.562Z,15.41
2019-04-03T18:08:32.499Z,15.26
2019-04-03T18:13:35.945Z,15.18
2019-04-03T18:18:39.277Z,15.00
2019-04-03T18:23:42.615Z,14.91
2019-04-03T18:28:45.939Z,14.98
2019-04-03T18:33:49.346Z,14.84
2019-04-03T18:38:53.230Z,14.70
2019-04-03T18:43:56.569Z,14.75
2019-04-03T18:49:01.630Z,14.42
2019-04-03T18:54:05.126Z,14.46
2019-04-03T18:59:08.774Z,14.29
2019-04-03T19:04:12.263Z,14.31
2019-04-03T19:09:21.046Z,14.18
2019-04-03T19:14:27.407Z,14.09
2019-04-03T19:19:27.957Z,13.97
2019-04-03T19:24:31.336Z,14.04
2019-04-03T19:29:35.883Z,14.07
2019-04-03T19:34:39.829Z,13.57
2019-04-03T19:39:43.198Z,13.14
2019-04-03T19:44:47.160Z,12.99
2019-04-03T19:49:51.770Z,12.96
2019-04-03T19:54:55.100Z,12.76
2019-04-03T19:59:58.427Z,12.64
2019-04-03T20:05:01.783Z,12.51
2019-04-03T20:10:07.996Z,12.48
2019-04-03T20:15:11.650Z,12.47
2019-04-03T20:20:15.018Z,12.47
2019-04-03T20:25:18.395Z,12.41
2019-04-03T20:30:21.696Z,12.22
2019-04-03T20:35:25.212Z,11.97
2019-04-03T20:40:31.719Z,11.85
2019-04-03T20:45:33.746Z,11.80
2019-04-03T20:50:38.152Z,11.60
2019-04-03T20:55:42.040Z,11.40
2019-04-03T21:00:47.081Z,11.36
2019-04-03T21:05:50.375Z,11.13
2019-04-03T21:10:53.667Z,11.17
2019-04-03T21:15:57.873Z,10.99
2019-04-03T21:21:01.637Z,10.87
2019-04-03T21:26:07.345Z,10.77
2019-04-03T21:31:10.186Z,10.86
2019-04-03T21:36:13.497Z,10.94
2019-04-03T21:41:20.488Z,10.64
2019-04-03T21:46:22.459Z,10.48
2019-04-03T21:51:25.712Z,10.28
2019-04-03T21:56:29.049Z,10.04
2019-04-03T22:01:32.459Z,9.75
2019-04-03T22:06:35.750Z,9.41
2019-04-03T22:11:39.190Z,9.10
2019-04-03T22:16:42.488Z,8.92
2019-04-03T22:21:45.782Z,8.64
2019-04-03T22:26:49.080Z,8.22
2019-04-03T22:31:54.414Z,8.01
2019-04-03T22:36:57.398Z,7.76
2019-04-03T22:42:00.704Z,7.63
2019-04-03T22:47:03.998Z,7.57
2019-04-03T22:52:08.891Z,7.41
2019-04-03T22:57:12.302Z,7.20
2019-04-03T23:02:15.605Z,7.09
2019-04-03T23:07:20.867Z,7.01
2019-04-03T23:17:32.486Z,6.92
2019-04-03T23:22:36.741Z,6.79
2019-04-03T23:27:40.039Z,6.74
2019-04-03T23:32:45.873Z,6.51
2019-04-03T23:37:48.357Z,6.35
2019-04-03T23:42:51.655Z,6.43
2019-04-03T23:47:54.924Z,6.49
2019-04-03T23:53:00.721Z,6.38
2019-04-03T23:58:03.241Z,6.42
